Etusivu
METAR-TAF:

METAR-TAF

Lentoasemat :

Taškent, Uzbekistan

Leveyspiiri: 41-16N, Pituuspiiri: 069-16E, korkeus merenpinnasta: 489 m

Tämänhetkinen sää

Tämä raportti tehtiin 48 minuuttia sitten, kello 21.00 UTC
Tuuli 2 kn etelästä/kaakosta
Lämpötila -4°C
Kosteus 86%
Ilmanpaine 1030 hPa
Näkyvyys: 4000 m
Pilvistä 800 ft:n korkeudessa
utua

METAR: UTTT 122100Z 16002KT 4000 BR OVC008 M04/M06 Q1030 R08L/CLRD70 TEMPO OVC002

Aika: 02:48 (21:48 UTC)

Sääennuste

Tämä raportti tehtiin 4 tuntia ja 48 minuuttia sitten, kello 17.00 UTC
Ennuste voimassa 12. päivästä klo 18 UTC - 13. päivään klo 18 UTC
Tuuli 6 kn lounaasta
Näkyvyys: 3000 m
Hajanaisia pilviä 800 ft:n korkeudessa
Hajonneita pilviä 10000 ft:n korkeudessa
utua
Ajoittain
12. päivästä klo 18 UTC - 13. päivään klo 03 UTC
Näkyvyys: 0400 m
200 ft:n korkeudessa
jäätävää sumua

TAF: UTTT 121700Z 1218/1318 23006KT 3000 BR SCT008 BKN100 TEMPO 1218/1303 0400 FZFG VV002

Säähavainnot ja -ennusteet yli 4000 lentoasemalta (METAR- ja TAF-raportit).

Käytössä olevat sääasemat on merkitty karttaan keltaisilla ja punaisilla pisteillä.

Aseta hiiri pisteen päälle nähdäksesi sääaseman nimen.

Klikkaa sitten nähdäksesi säähavainnot ja -ennusteet.

Kartan vaihtaminen: klikkaa mustalla rastilla varustettuja vihreitä pisteitä, niin voit zoomata sisään; viivalla varustettua vihreää pistettä, niin voit zoomata ulos tai vihreitä nuolia, niin pääset viereisille kartoille.


METAR-TAF: